Villa Oriente, Puerto Rico
Current Conditions -  °F | °C
As of 8:53 PM on Saturday 20 Dec 2014 (Local Time) from TJNR Reporting Station
Scattered Clouds Scattered Clouds  
Wind Chill: 77°   Ceiling: Unl
Heat Index: 78°   Visibility: 10mi
Dew Point: 72°   Wind: 6mph
Humidity: 84%   Direction: 70°ENE
Pressure: 30.08"   Gusts: NA
Location:  18.1494°N, 65.8294°W
Report Text: TJNR 210053Z AUTO 07005KT 10SM SCT024 25/22 A3008 RMK AO2 SLP185 T02500222 $
Loading
Personal Weather Stations






























Interactive Weather Map New forecast layout! Learn more

10-Day Weather Forecast

Advertisements
Track Severe Weather on mobile